LNI1231 RKSI-ZKPY
Flight info
| Callsign | LNI1231 |
|---|---|
| Flight time | 0h 41m |
| Altitude | 26000 |
| Route | EGOBA2H EGOBA DCT GUMDA/K0826F260 DCT SASRI SAS11A |
| Aircraft | B739/M-SDE2E3FGHIRWXY/LB1 |
Departure
| Time | 2026-05-06 22:13 |
|---|---|
| Airport | Incheon International Airport (RKSI) |
Arrival
| Time | 2026-05-06 22:55 |
|---|---|
| Airport | Pyongyang Sunan International Airport (ZKPY) |
| Time | Latitude | Longitude | Altitude | Speed | Heading |
|---|---|---|---|---|---|
| 2026-05-06 21:56 | 37.45373 | 126.45212 | 21 ft | 0 kts | 247° |
| 2026-05-06 22:05 | 37.45379 | 126.45230 | 21 ft | 4 kts | 247° |
| 2026-05-06 22:05 | 37.45390 | 126.45261 | 23 ft | 4 kts | 238° |
| 2026-05-06 22:06 | 37.45407 | 126.45286 | 23 ft | 4 kts | 216° |
| 2026-05-06 22:06 | 37.45430 | 126.45300 | 22 ft | 4 kts | 182° |
| 2026-05-06 22:06 | 37.45443 | 126.45299 | 22 ft | 0 kts | 165° |
| 2026-05-06 22:09 | 37.45439 | 126.45301 | 22 ft | 5 kts | 161° |
| 2026-05-06 22:09 | 37.45412 | 126.45346 | 21 ft | 7 kts | 102° |
| 2026-05-06 22:09 | 37.45424 | 126.45404 | 21 ft | 7 kts | 56° |
| 2026-05-06 22:09 | 37.45451 | 126.45453 | 21 ft | 7 kts | 54° |
| 2026-05-06 22:10 | 37.45482 | 126.45515 | 21 ft | 10 kts | 57° |
| 2026-05-06 22:10 | 37.45536 | 126.45604 | 21 ft | 15 kts | 53° |
| 2026-05-06 22:10 | 37.45535 | 126.45719 | 21 ft | 14 kts | 132° |
| 2026-05-06 22:10 | 37.45458 | 126.45788 | 20 ft | 13 kts | 146° |
| 2026-05-06 22:11 | 37.45384 | 126.45856 | 21 ft | 13 kts | 133° |
| 2026-05-06 22:11 | 37.45363 | 126.45945 | 20 ft | 5 kts | 71° |
| 2026-05-06 22:11 | 37.45364 | 126.45947 | 48 ft | 0 kts | 68° |
| 2026-05-06 22:11 | 37.45372 | 126.45965 | 21 ft | 9 kts | 56° |
| 2026-05-06 22:12 | 37.45432 | 126.46041 | 21 ft | 12 kts | 21° |
| 2026-05-06 22:12 | 37.45511 | 126.46015 | 19 ft | 12 kts | 326° |
| 2026-05-06 22:12 | 37.45536 | 126.45992 | 18 ft | 0 kts | 324° |
| 2026-05-06 22:12 | 37.45549 | 126.45981 | 19 ft | 20 kts | 324° |
| 2026-05-06 22:13 | 37.45913 | 126.45656 | 22 ft | 105 kts | 324° |
| 2026-05-06 22:13 | 37.46706 | 126.44954 | 24 ft | 171 kts | 326° |
| 2026-05-06 22:13 | 37.47806 | 126.43985 | 260 ft | 207 kts | 326° |
| 2026-05-06 22:13 | 37.49029 | 126.42927 | 1056 ft | 222 kts | 322° |
| 2026-05-06 22:14 | 37.50385 | 126.41798 | 1695 ft | 242 kts | 321° |
| 2026-05-06 22:14 | 37.51862 | 126.40578 | 2283 ft | 259 kts | 320° |
| 2026-05-06 22:14 | 37.53374 | 126.39329 | 3108 ft | 261 kts | 321° |
| 2026-05-06 22:14 | 37.54897 | 126.38067 | 3998 ft | 262 kts | 320° |
| 2026-05-06 22:15 | 37.56417 | 126.36793 | 4884 ft | 263 kts | 317° |
| 2026-05-06 22:15 | 37.57559 | 126.35074 | 5640 ft | 254 kts | 288° |
| 2026-05-06 22:15 | 37.57970 | 126.32940 | 6460 ft | 251 kts | 271° |
| 2026-05-06 22:15 | 37.58011 | 126.30728 | 7184 ft | 255 kts | 267° |
| 2026-05-06 22:16 | 37.57991 | 126.28479 | 7922 ft | 259 kts | 267° |
| 2026-05-06 22:16 | 37.57976 | 126.26192 | 8682 ft | 263 kts | 267° |
| 2026-05-06 22:16 | 37.57916 | 126.23879 | 9417 ft | 266 kts | 258° |
| 2026-05-06 22:16 | 37.57201 | 126.21749 | 10100 ft | 267 kts | 233° |
| 2026-05-06 22:17 | 37.55853 | 126.20093 | 10422 ft | 288 kts | 213° |
| 2026-05-06 22:17 | 37.53937 | 126.19049 | 10616 ft | 312 kts | 201° |
| 2026-05-06 22:17 | 37.51798 | 126.18161 | 10774 ft | 334 kts | 200° |
| 2026-05-06 22:17 | 37.49522 | 126.17229 | 10921 ft | 354 kts | 201° |
| 2026-05-06 22:18 | 37.47128 | 126.16230 | 11096 ft | 370 kts | 201° |
| 2026-05-06 22:18 | 37.44631 | 126.15305 | 11541 ft | 379 kts | 192° |
| 2026-05-06 22:18 | 37.41973 | 126.15370 | 12140 ft | 390 kts | 172° |
| 2026-05-06 22:18 | 37.39394 | 126.16552 | 12732 ft | 401 kts | 156° |
| 2026-05-06 22:19 | 37.37150 | 126.18720 | 13239 ft | 416 kts | 137° |
| 2026-05-06 22:19 | 37.35250 | 126.21482 | 13807 ft | 419 kts | 135° |
| 2026-05-06 22:19 | 37.33488 | 126.24442 | 14167 ft | 432 kts | 123° |
| 2026-05-06 22:19 | 37.32542 | 126.28086 | 14522 ft | 448 kts | 100° |
| 2026-05-06 22:20 | 37.32457 | 126.32019 | 14982 ft | 453 kts | 91° |
| 2026-05-06 22:20 | 37.32503 | 126.36002 | 15352 ft | 458 kts | 92° |
| 2026-05-06 22:20 | 37.32515 | 126.40027 | 15700 ft | 463 kts | 92° |
| 2026-05-06 22:20 | 37.32489 | 126.44082 | 16096 ft | 466 kts | 93° |
| 2026-05-06 22:21 | 37.32445 | 126.48165 | 16522 ft | 468 kts | 93° |
| 2026-05-06 22:21 | 37.32395 | 126.52273 | 16884 ft | 472 kts | 93° |
| 2026-05-06 22:21 | 37.32346 | 126.56417 | 17239 ft | 476 kts | 93° |
| 2026-05-06 22:21 | 37.32297 | 126.60584 | 17593 ft | 480 kts | 93° |
| 2026-05-06 22:22 | 37.32248 | 126.64795 | 17933 ft | 484 kts | 93° |
| 2026-05-06 22:22 | 37.32197 | 126.69037 | 18261 ft | 487 kts | 93° |
| 2026-05-06 22:22 | 37.32145 | 126.73303 | 18568 ft | 490 kts | 93° |
| 2026-05-06 22:22 | 37.32096 | 126.77590 | 18896 ft | 491 kts | 93° |
| 2026-05-06 22:23 | 37.32048 | 126.81876 | 19243 ft | 492 kts | 93° |
| 2026-05-06 22:23 | 37.31998 | 126.86191 | 19533 ft | 495 kts | 93° |
| 2026-05-06 22:23 | 37.31946 | 126.90528 | 19819 ft | 498 kts | 93° |
| 2026-05-06 22:23 | 37.31892 | 126.94893 | 20091 ft | 501 kts | 93° |
| 2026-05-06 22:24 | 37.31963 | 126.99276 | 20371 ft | 506 kts | 84° |
| 2026-05-06 22:24 | 37.32907 | 127.03538 | 20684 ft | 508 kts | 65° |
| 2026-05-06 22:24 | 37.34772 | 127.07279 | 20987 ft | 506 kts | 45° |
| 2026-05-06 22:24 | 37.37461 | 127.10044 | 21244 ft | 497 kts | 24° |
| 2026-05-06 22:25 | 37.40610 | 127.11502 | 21491 ft | 484 kts | 4° |
| 2026-05-06 22:25 | 37.43919 | 127.11634 | 21776 ft | 471 kts | 347° |
| 2026-05-06 22:25 | 37.47109 | 127.10899 | 22019 ft | 463 kts | 337° |
| 2026-05-06 22:25 | 37.50112 | 127.09536 | 22245 ft | 456 kts | 327° |
| 2026-05-06 22:26 | 37.52789 | 127.07495 | 22471 ft | 445 kts | 314° |
| 2026-05-06 22:26 | 37.54976 | 127.04809 | 22729 ft | 436 kts | 303° |
| 2026-05-06 22:26 | 37.56676 | 127.01691 | 22980 ft | 428 kts | 292° |
| 2026-05-06 22:26 | 37.57767 | 126.98247 | 23233 ft | 422 kts | 282° |
| 2026-05-06 22:27 | 37.58541 | 126.94676 | 23415 ft | 424 kts | 281° |
| 2026-05-06 22:27 | 37.59289 | 126.91071 | 23583 ft | 426 kts | 281° |
| 2026-05-06 22:27 | 37.60046 | 126.87456 | 23826 ft | 426 kts | 281° |
| 2026-05-06 22:27 | 37.60816 | 126.83854 | 24046 ft | 426 kts | 281° |
| 2026-05-06 22:28 | 37.61601 | 126.80255 | 24251 ft | 426 kts | 281° |
| 2026-05-06 22:28 | 37.62394 | 126.76645 | 24431 ft | 427 kts | 281° |
| 2026-05-06 22:28 | 37.63328 | 126.73073 | 24611 ft | 433 kts | 290° |
| 2026-05-06 22:28 | 37.64851 | 126.69758 | 24833 ft | 441 kts | 299° |
| 2026-05-06 22:29 | 37.66782 | 126.66721 | 25102 ft | 445 kts | 307° |
| 2026-05-06 22:29 | 37.69115 | 126.64106 | 25413 ft | 453 kts | 316° |
| 2026-05-06 22:29 | 37.71665 | 126.61775 | 25741 ft | 452 kts | 317° |
| 2026-05-06 22:29 | 37.74236 | 126.59477 | 26005 ft | 452 kts | 317° |
| 2026-05-06 22:30 | 37.76810 | 126.57181 | 25987 ft | 454 kts | 317° |
| 2026-05-06 22:30 | 37.78513 | 126.55654 | 25996 ft | 453 kts | 317° |
| 2026-05-06 22:30 | 37.81074 | 126.53343 | 25999 ft | 452 kts | 317° |
| 2026-05-06 22:30 | 37.83622 | 126.51026 | 25994 ft | 451 kts | 317° |
| 2026-05-06 22:31 | 37.86164 | 126.48702 | 26042 ft | 450 kts | 316° |
| 2026-05-06 22:31 | 37.88697 | 126.46376 | 26003 ft | 450 kts | 316° |
| 2026-05-06 22:31 | 37.91228 | 126.44047 | 26002 ft | 449 kts | 316° |
| 2026-05-06 22:31 | 37.93757 | 126.41717 | 25991 ft | 449 kts | 316° |
| 2026-05-06 22:32 | 37.96280 | 126.39389 | 25998 ft | 448 kts | 316° |
| 2026-05-06 22:32 | 37.98800 | 126.37064 | 25987 ft | 448 kts | 316° |
| 2026-05-06 22:32 | 38.01320 | 126.34736 | 25988 ft | 448 kts | 316° |
| 2026-05-06 22:32 | 38.03837 | 126.32410 | 25991 ft | 448 kts | 316° |
| 2026-05-06 22:33 | 38.06353 | 126.30082 | 25985 ft | 447 kts | 316° |
| 2026-05-06 22:33 | 38.08865 | 126.27756 | 25987 ft | 447 kts | 316° |
| 2026-05-06 22:33 | 38.11383 | 126.25423 | 25988 ft | 447 kts | 316° |
| 2026-05-06 22:33 | 38.13896 | 126.23094 | 26010 ft | 448 kts | 316° |
| 2026-05-06 22:34 | 38.16378 | 126.20790 | 25982 ft | 448 kts | 316° |
| 2026-05-06 22:34 | 38.18895 | 126.18451 | 25983 ft | 448 kts | 316° |
| 2026-05-06 22:34 | 38.21413 | 126.16110 | 25976 ft | 448 kts | 316° |
| 2026-05-06 22:34 | 38.23930 | 126.13768 | 25975 ft | 448 kts | 316° |
| 2026-05-06 22:35 | 38.26449 | 126.11422 | 25966 ft | 448 kts | 316° |
| 2026-05-06 22:35 | 38.28965 | 126.09076 | 25975 ft | 448 kts | 316° |
| 2026-05-06 22:35 | 38.31486 | 126.06723 | 25519 ft | 454 kts | 316° |
| 2026-05-06 22:35 | 38.34058 | 126.04314 | 24617 ft | 458 kts | 316° |
| 2026-05-06 22:36 | 38.36608 | 126.01935 | 23809 ft | 447 kts | 316° |
| 2026-05-06 22:36 | 38.39100 | 125.99614 | 23028 ft | 442 kts | 317° |
| 2026-05-06 22:36 | 38.41567 | 125.97315 | 22243 ft | 436 kts | 317° |
| 2026-05-06 22:36 | 38.44005 | 125.95039 | 21513 ft | 431 kts | 316° |
| 2026-05-06 22:37 | 38.46410 | 125.92781 | 20806 ft | 426 kts | 316° |
| 2026-05-06 22:37 | 38.48784 | 125.90548 | 20110 ft | 422 kts | 317° |
| 2026-05-06 22:37 | 38.51135 | 125.88337 | 19417 ft | 418 kts | 317° |
| 2026-05-06 22:37 | 38.53467 | 125.86148 | 18730 ft | 414 kts | 317° |
| 2026-05-06 22:38 | 38.55774 | 125.83971 | 18010 ft | 411 kts | 317° |
| 2026-05-06 22:38 | 38.58067 | 125.81802 | 17234 ft | 408 kts | 317° |
| 2026-05-06 22:38 | 38.60311 | 125.79685 | 16549 ft | 404 kts | 317° |
| 2026-05-06 22:38 | 38.62589 | 125.77539 | 15862 ft | 399 kts | 317° |
| 2026-05-06 22:39 | 38.64783 | 125.75470 | 15220 ft | 396 kts | 317° |
| 2026-05-06 22:39 | 38.66989 | 125.73388 | 14579 ft | 392 kts | 317° |
| 2026-05-06 22:39 | 38.69176 | 125.71320 | 13914 ft | 389 kts | 317° |
| 2026-05-06 22:39 | 38.71345 | 125.69265 | 13184 ft | 387 kts | 317° |
| 2026-05-06 22:40 | 38.73505 | 125.67217 | 12484 ft | 385 kts | 317° |
| 2026-05-06 22:40 | 38.75654 | 125.65180 | 11827 ft | 384 kts | 317° |
| 2026-05-06 22:40 | 38.77801 | 125.63144 | 11132 ft | 383 kts | 317° |
| 2026-05-06 22:40 | 38.79891 | 125.61164 | 10996 ft | 366 kts | 317° |
| 2026-05-06 22:41 | 38.83830 | 125.57432 | 10663 ft | 338 kts | 316° |
| 2026-05-06 22:41 | 38.85688 | 125.55666 | 10513 ft | 326 kts | 316° |
| 2026-05-06 22:41 | 38.87475 | 125.53963 | 10359 ft | 314 kts | 316° |
| 2026-05-06 22:42 | 38.89201 | 125.52323 | 10241 ft | 303 kts | 316° |
| 2026-05-06 22:42 | 38.90862 | 125.50738 | 10118 ft | 292 kts | 316° |
| 2026-05-06 22:42 | 38.92452 | 125.49223 | 9987 ft | 277 kts | 316° |
| 2026-05-06 22:42 | 38.93981 | 125.47759 | 9657 ft | 273 kts | 316° |
| 2026-05-06 22:43 | 38.95497 | 125.46303 | 9357 ft | 272 kts | 317° |
| 2026-05-06 22:43 | 38.97025 | 125.44834 | 9033 ft | 274 kts | 316° |
| 2026-05-06 22:43 | 38.98559 | 125.43354 | 8630 ft | 275 kts | 318° |
| 2026-05-06 22:43 | 39.00051 | 125.41936 | 8347 ft | 267 kts | 319° |
| 2026-05-06 22:44 | 39.01637 | 125.40708 | 8008 ft | 271 kts | 339° |
| 2026-05-06 22:44 | 39.03519 | 125.40572 | 7759 ft | 276 kts | 9° |
| 2026-05-06 22:44 | 39.05301 | 125.41507 | 7530 ft | 279 kts | 28° |
| 2026-05-06 22:44 | 39.06964 | 125.42806 | 7296 ft | 280 kts | 30° |
| 2026-05-06 22:45 | 39.08618 | 125.44149 | 7035 ft | 282 kts | 30° |
| 2026-05-06 22:45 | 39.10279 | 125.45488 | 6808 ft | 281 kts | 29° |
| 2026-05-06 22:45 | 39.11943 | 125.46814 | 6548 ft | 282 kts | 30° |
| 2026-05-06 22:45 | 39.13601 | 125.48139 | 6292 ft | 279 kts | 29° |
| 2026-05-06 22:46 | 39.15242 | 125.49448 | 6040 ft | 275 kts | 29° |
| 2026-05-06 22:46 | 39.16869 | 125.50733 | 5820 ft | 274 kts | 29° |
| 2026-05-06 22:46 | 39.18477 | 125.52003 | 5738 ft | 264 kts | 29° |
| 2026-05-06 22:46 | 39.19976 | 125.53241 | 5704 ft | 248 kts | 32° |
| 2026-05-06 22:47 | 39.21431 | 125.54335 | 5576 ft | 235 kts | 22° |
| 2026-05-06 22:47 | 39.22913 | 125.55041 | 5471 ft | 224 kts | 19° |
| 2026-05-06 22:47 | 39.24132 | 125.56206 | 5326 ft | 211 kts | 34° |
| 2026-05-06 22:47 | 39.25464 | 125.56614 | 4832 ft | 203 kts | 332° |
| 2026-05-06 22:48 | 39.26154 | 125.55203 | 4546 ft | 206 kts | 268° |
| 2026-05-06 22:48 | 39.25800 | 125.53269 | 4442 ft | 231 kts | 258° |
| 2026-05-06 22:48 | 39.26223 | 125.51574 | 4079 ft | 209 kts | 358° |
| 2026-05-06 22:48 | 39.27642 | 125.52354 | 3807 ft | 235 kts | 21° |
| 2026-05-06 22:49 | 39.29127 | 125.52293 | 3615 ft | 202 kts | 327° |
| 2026-05-06 22:49 | 39.30297 | 125.51438 | 3571 ft | 187 kts | 338° |
| 2026-05-06 22:49 | 39.31564 | 125.51095 | 3563 ft | 189 kts | 2° |
| 2026-05-06 22:49 | 39.32737 | 125.51828 | 3604 ft | 196 kts | 41° |
| 2026-05-06 22:50 | 39.33453 | 125.53316 | 3317 ft | 200 kts | 73° |
| 2026-05-06 22:50 | 39.33851 | 125.55046 | 3120 ft | 198 kts | 75° |
| 2026-05-06 22:50 | 39.34235 | 125.56711 | 2895 ft | 194 kts | 75° |
| 2026-05-06 22:50 | 39.34622 | 125.58369 | 2683 ft | 192 kts | 76° |
| 2026-05-06 22:51 | 39.34845 | 125.60008 | 2441 ft | 179 kts | 103° |
| 2026-05-06 22:51 | 39.34293 | 125.61334 | 2318 ft | 167 kts | 142° |
| 2026-05-06 22:51 | 39.33279 | 125.61976 | 2142 ft | 161 kts | 167° |
| 2026-05-06 22:51 | 39.32213 | 125.62403 | 1975 ft | 160 kts | 165° |
| 2026-05-06 22:52 | 39.31171 | 125.62829 | 1775 ft | 153 kts | 165° |
| 2026-05-06 22:52 | 39.30132 | 125.63242 | 1695 ft | 159 kts | 165° |
| 2026-05-06 22:52 | 39.29088 | 125.63655 | 1584 ft | 155 kts | 165° |
| 2026-05-06 22:52 | 39.28066 | 125.64059 | 1402 ft | 150 kts | 165° |
| 2026-05-06 22:53 | 39.27084 | 125.64447 | 1180 ft | 147 kts | 164° |
| 2026-05-06 22:53 | 39.26087 | 125.64841 | 979 ft | 152 kts | 163° |
| 2026-05-06 22:53 | 39.25074 | 125.65242 | 758 ft | 152 kts | 162° |
| 2026-05-06 22:53 | 39.24047 | 125.65648 | 548 ft | 154 kts | 162° |
| 2026-05-06 22:54 | 39.23041 | 125.66045 | 338 ft | 149 kts | 162° |
| 2026-05-06 22:54 | 39.22060 | 125.66434 | 168 ft | 149 kts | 162° |
| 2026-05-06 22:54 | 39.21150 | 125.66802 | 116 ft | 118 kts | 163° |
| 2026-05-06 22:54 | 39.20566 | 125.67020 | 114 ft | 56 kts | 163° |
| 2026-05-06 22:55 | 39.20386 | 125.67103 | 117 ft | 10 kts | 150° |
| 2026-05-06 22:55 | 39.20324 | 125.67166 | 115 ft | 13 kts | 129° |
| 2026-05-06 22:55 | 39.20278 | 125.67264 | 116 ft | 6 kts | 121° |
| 2026-05-06 22:55 | 39.20276 | 125.67267 | 116 ft | 0 kts | 121° |
| 2026-05-06 22:57 | 39.20264 | 125.67292 | 115 ft | 12 kts | 121° |
| 2026-05-06 22:57 | 39.20167 | 125.67359 | 115 ft | 15 kts | 164° |
| 2026-05-06 22:58 | 39.20071 | 125.67391 | 114 ft | 14 kts | 163° |
| 2026-05-06 22:58 | 39.19996 | 125.67425 | 114 ft | 10 kts | 148° |
| 2026-05-06 22:58 | 39.20000 | 125.67493 | 113 ft | 10 kts | 11° |
| 2026-05-06 22:58 | 39.20029 | 125.67484 | 114 ft | 2 kts | 340° |
| 2026-05-06 22:59 | 39.20046 | 125.67477 | 113 ft | 3 kts | 342° |
| 2026-05-06 22:59 | 39.20071 | 125.67487 | 115 ft | 5 kts | 46° |
| 2026-05-06 22:59 | 39.20082 | 125.67522 | 114 ft | 3 kts | 73° |
| 2026-05-06 22:59 | 39.20087 | 125.67547 | 114 ft | 1 kts | 77° |
| 2026-05-06 23:00 | 39.20087 | 125.67548 | 112 ft | 0 kts | 77° |